createdAt,value
2019-04-12T00:00:09.310Z,63.17
2019-04-12T00:01:09.299Z,63.39
2019-04-12T00:02:09.286Z,63.57
2019-04-12T00:03:09.273Z,63.54
2019-04-12T00:04:09.268Z,63.35
2019-04-12T00:05:09.257Z,63.39
2019-04-12T00:06:09.246Z,63.57
2019-04-12T00:07:09.241Z,63.54
2019-04-12T00:08:09.235Z,63.26
2019-04-12T00:09:09.217Z,63.29
2019-04-12T00:10:09.209Z,63.45
2019-04-12T00:11:09.203Z,63.95
2019-04-12T00:12:09.194Z,64.87
2019-04-12T00:13:09.179Z,64.30
2019-04-12T00:14:09.172Z,64.30
2019-04-12T00:15:11.737Z,64.21
2019-04-12T00:16:09.147Z,64.02
2019-04-12T00:17:09.141Z,64.69
2019-04-12T00:18:09.130Z,64.49
2019-04-12T00:19:09.133Z,64.11
2019-04-12T00:20:09.115Z,64.40
2019-04-12T00:21:09.102Z,64.40
2019-04-12T00:22:09.091Z,64.30
2019-04-12T00:23:09.078Z,64.72
2019-04-12T00:24:09.070Z,64.69
2019-04-12T00:25:09.063Z,64.62
2019-04-12T00:26:09.053Z,64.97
2019-04-12T00:27:09.038Z,64.30
2019-04-12T00:28:09.029Z,64.81
2019-04-12T00:29:09.022Z,64.53
2019-04-12T00:30:09.012Z,64.90
2019-04-12T00:31:09.006Z,64.49
2019-04-12T00:32:08.997Z,64.87
2019-04-12T00:33:08.987Z,64.90
2019-04-12T00:34:08.979Z,65.19
2019-04-12T00:35:08.965Z,64.87
2019-04-12T00:36:08.956Z,65.06
2019-04-12T00:37:08.942Z,65.16
2019-04-12T00:38:08.938Z,64.81
2019-04-12T00:39:08.928Z,65.16
2019-04-12T00:40:08.918Z,65.35
2019-04-12T00:41:08.902Z,65.35
2019-04-12T00:42:08.893Z,64.72
2019-04-12T00:43:08.888Z,65.47
2019-04-12T00:44:08.879Z,65.16
2019-04-12T00:45:08.869Z,64.69
2019-04-12T00:46:08.861Z,65.54
2019-04-12T00:47:09.348Z,65.82
2019-04-12T00:48:10.358Z,65.76
2019-04-12T00:49:10.274Z,65.82
2019-04-12T00:50:11.150Z,65.76
2019-04-12T00:51:11.951Z,66.14
2019-04-12T00:52:13.960Z,66.33
2019-04-12T00:53:11.005Z,65.76
2019-04-12T00:54:08.779Z,65.38
2019-04-12T00:55:08.766Z,65.38
2019-04-12T00:56:08.757Z,65.86
2019-04-12T00:57:08.751Z,65.76
2019-04-12T00:58:08.743Z,65.38
2019-04-12T00:59:08.727Z,64.72
2019-04-12T01:00:08.730Z,65.09
2019-04-12T01:01:08.711Z,64.72
2019-04-12T01:02:08.699Z,65.57
2019-04-12T01:03:08.697Z,65.67
2019-04-12T01:04:08.686Z,66.01
2019-04-12T01:05:08.675Z,65.63
2019-04-12T01:06:08.668Z,65.76
2019-04-12T01:07:08.652Z,65.47
2019-04-12T01:08:08.643Z,65.95
2019-04-12T01:09:08.630Z,65.95
2019-04-12T01:10:08.621Z,65.86
2019-04-12T01:11:08.616Z,65.86
2019-04-12T01:12:08.607Z,65.38
2019-04-12T01:13:08.592Z,65.38
2019-04-12T01:14:08.582Z,65.57
2019-04-12T01:20:08.524Z,65.86
2019-04-12T01:21:08.515Z,66.05
2019-04-12T01:22:09.022Z,65.86
2019-04-12T01:23:10.293Z,65.35
2019-04-12T01:24:10.928Z,65.57
2019-04-12T01:25:08.480Z,65.38
2019-04-12T01:26:08.473Z,65.57
2019-04-12T01:27:08.460Z,66.01
2019-04-12T01:28:08.450Z,65.73
2019-04-12T01:29:08.452Z,65.92
2019-04-12T01:30:08.431Z,66.24
2019-04-12T01:31:08.419Z,65.86
2019-04-12T01:32:08.409Z,66.05
2019-04-12T01:33:08.395Z,66.20
2019-04-12T01:34:08.386Z,66.39
2019-04-12T01:35:08.386Z,65.76
2019-04-12T01:36:08.371Z,66.39
2019-04-12T01:37:08.368Z,66.24
2019-04-12T01:38:08.353Z,66.52
2019-04-12T01:39:08.338Z,66.33
2019-04-12T01:40:08.336Z,66.33
2019-04-12T01:41:08.322Z,65.86
2019-04-12T01:42:08.311Z,65.86
2019-04-12T01:43:08.306Z,65.28
2019-04-12T01:44:08.296Z,66.14
2019-04-12T01:45:08.281Z,66.05
2019-04-12T01:46:08.274Z,65.86
2019-04-12T01:47:08.268Z,65.86
2019-04-12T01:48:08.258Z,65.67
2019-04-12T01:49:08.243Z,65.76
2019-04-12T01:50:08.234Z,65.86
2019-04-12T01:51:08.219Z,65.57
2019-04-12T01:52:08.214Z,65.38
2019-04-12T01:53:08.200Z,65.82
2019-04-12T01:54:08.190Z,65.38
2019-04-12T01:55:09.171Z,65.92
2019-04-12T01:56:08.178Z,65.86
2019-04-12T01:57:08.169Z,66.24
2019-04-12T01:58:08.158Z,66.24
2019-04-12T01:59:08.145Z,66.05
2019-04-12T02:00:08.136Z,66.11
2019-04-12T02:01:08.130Z,66.14
2019-04-12T02:02:08.119Z,65.95
2019-04-12T02:03:08.108Z,65.76
2019-04-12T02:04:08.097Z,66.30
2019-04-12T02:05:08.083Z,65.95
2019-04-12T02:06:08.073Z,65.92
2019-04-12T02:07:08.069Z,65.95
2019-04-12T02:08:08.059Z,65.95
2019-04-12T02:09:08.047Z,65.86
2019-04-12T02:10:08.038Z,66.20
2019-04-12T02:11:08.023Z,66.14
2019-04-12T02:12:08.365Z,65.57
2019-04-12T02:13:08.006Z,66.05
2019-04-12T02:14:08.002Z,65.92
2019-04-12T02:15:07.992Z,66.24
2019-04-12T02:16:07.982Z,66.01
2019-04-12T02:17:07.967Z,66.05
2019-04-12T02:18:07.956Z,65.54
2019-04-12T02:19:07.954Z,65.73
2019-04-12T02:20:07.945Z,65.73
2019-04-12T02:21:07.939Z,65.73
2019-04-12T02:22:07.922Z,65.44
2019-04-12T02:23:07.909Z,65.86
2019-04-12T02:24:07.898Z,65.73
2019-04-12T02:25:07.890Z,65.73
2019-04-12T02:26:07.879Z,65.73
2019-04-12T02:27:07.874Z,65.63
2019-04-12T02:28:07.866Z,66.20
2019-04-12T02:29:07.852Z,66.42
2019-04-12T02:30:07.843Z,65.95
2019-04-12T02:31:07.829Z,66.14
2019-04-12T02:32:07.818Z,66.14
2019-04-12T02:33:07.813Z,65.73
2019-04-12T02:34:07.804Z,65.95
2019-04-12T02:35:07.792Z,65.86
2019-04-12T02:36:07.779Z,66.05
2019-04-12T02:37:07.771Z,66.24
2019-04-12T02:38:07.761Z,66.20
2019-04-12T02:39:07.756Z,65.54
2019-04-12T02:40:07.746Z,65.44
2019-04-12T02:41:07.736Z,64.97
2019-04-12T02:42:07.735Z,64.53
2019-04-12T02:43:07.718Z,64.49
2019-04-12T02:44:07.707Z,64.78
2019-04-12T02:45:07.691Z,64.24
2019-04-12T02:46:07.688Z,64.21
2019-04-12T02:47:07.676Z,64.21
2019-04-12T02:48:07.669Z,63.92
2019-04-12T02:49:07.658Z,63.54
2019-04-12T02:50:07.661Z,63.54
2019-04-12T02:51:07.638Z,63.45
2019-04-12T02:52:07.627Z,63.35
2019-04-12T02:53:07.623Z,63.26
2019-04-12T02:54:07.612Z,63.35
2019-04-12T02:55:07.622Z,64.11
2019-04-12T02:56:07.594Z,64.02
2019-04-12T02:57:07.575Z,64.11
2019-04-12T02:58:07.582Z,63.26
2019-04-12T02:59:07.574Z,63.07
2019-04-12T03:00:07.550Z,63.26
2019-04-12T03:01:07.600Z,63.64
2019-04-12T03:02:07.527Z,63.54
2019-04-12T03:03:07.523Z,63.35
2019-04-12T03:04:07.505Z,63.64
2019-04-12T03:05:07.498Z,62.88
2019-04-12T03:06:07.531Z,62.97
2019-04-12T03:07:07.487Z,62.59
2019-04-12T03:08:07.471Z,63.07
2019-04-12T03:09:07.460Z,63.35
2019-04-12T03:10:07.448Z,63.17
2019-04-12T03:11:07.450Z,63.64
2019-04-12T03:12:07.434Z,63.26
2019-04-12T03:13:07.429Z,63.17
2019-04-12T03:14:07.413Z,62.97
2019-04-12T03:15:07.395Z,62.97
2019-04-12T03:16:07.396Z,63.07
2019-04-12T03:17:07.378Z,62.97
2019-04-12T03:18:07.363Z,62.59
2019-04-12T03:19:07.361Z,62.97
2019-04-12T03:20:07.356Z,62.59
2019-04-12T03:21:07.342Z,62.02
2019-04-12T03:22:07.328Z,62.31
2019-04-12T03:23:07.320Z,62.31
2019-04-12T03:24:07.310Z,62.21
2019-04-12T03:25:07.300Z,62.12
2019-04-12T03:26:07.299Z,62.31
2019-04-12T03:27:07.276Z,62.21
2019-04-12T03:28:07.277Z,62.02
2019-04-12T03:29:07.256Z,61.36
2019-04-12T03:30:07.244Z,61.55
2019-04-12T03:31:07.238Z,61.65
2019-04-12T03:32:07.235Z,60.88
2019-04-12T03:33:07.269Z,61.07
2019-04-12T03:34:07.215Z,60.98
2019-04-12T03:35:07.212Z,60.98
2019-04-12T03:36:07.187Z,60.88
2019-04-12T03:37:07.181Z,60.98
2019-04-12T03:38:07.172Z,60.88
2019-04-12T03:39:07.156Z,60.88
2019-04-12T03:40:07.146Z,60.98
2019-04-12T03:41:07.135Z,60.79
2019-04-12T03:42:07.123Z,60.98
2019-04-12T03:43:07.119Z,60.60
2019-04-12T03:44:07.107Z,60.69
2019-04-12T03:45:07.101Z,61.55
2019-04-12T03:46:07.087Z,61.55
2019-04-12T03:47:07.087Z,61.65
2019-04-12T03:48:07.064Z,61.26
2019-04-12T03:49:07.055Z,61.93
2019-04-12T03:50:07.048Z,62.12
2019-04-12T03:51:07.039Z,61.83
2019-04-12T03:52:07.031Z,61.74
2019-04-12T03:53:07.019Z,61.93
2019-04-12T03:54:07.014Z,62.31
2019-04-12T03:55:07.006Z,62.21
2019-04-12T03:56:09.016Z,62.21
2019-04-12T03:57:07.023Z,61.93
2019-04-12T03:58:06.974Z,61.74
2019-04-12T03:59:06.956Z,62.78
2019-04-12T04:00:06.943Z,62.31
2019-04-12T04:01:06.933Z,62.12
2019-04-12T04:02:06.923Z,62.50
2019-04-12T04:03:06.917Z,62.59
2019-04-12T04:04:06.905Z,62.02
2019-04-12T04:05:06.904Z,62.69
2019-04-12T04:06:06.890Z,62.69
2019-04-12T04:07:06.875Z,62.88
2019-04-12T04:08:06.867Z,62.88
2019-04-12T04:09:06.856Z,62.69
2019-04-12T04:10:06.847Z,62.40
2019-04-12T04:11:06.843Z,62.50
2019-04-12T04:12:06.823Z,63.07
2019-04-12T04:13:06.813Z,62.21
2019-04-12T04:14:06.800Z,62.97
2019-04-12T04:15:06.796Z,62.78
2019-04-12T04:16:06.787Z,62.69
2019-04-12T04:17:06.775Z,63.07
2019-04-12T04:18:06.767Z,62.88
2019-04-12T04:19:06.756Z,62.69
2019-04-12T04:20:06.744Z,62.78
2019-04-12T04:21:06.738Z,62.50
2019-04-12T04:22:06.724Z,62.31
2019-04-12T04:23:06.719Z,61.93
2019-04-12T04:24:06.708Z,62.02
2019-04-12T04:25:06.692Z,61.83
2019-04-12T04:26:06.684Z,61.65
2019-04-12T04:27:06.679Z,61.83
2019-04-12T04:28:06.667Z,61.26
2019-04-12T04:29:06.654Z,61.36
2019-04-12T04:30:06.645Z,61.45
2019-04-12T04:31:06.631Z,61.83
2019-04-12T04:32:06.658Z,61.65
2019-04-12T04:33:06.618Z,61.36
2019-04-12T04:34:06.602Z,61.74
2019-04-12T04:35:06.603Z,61.83
2019-04-12T04:36:06.588Z,62.02
2019-04-12T04:37:06.573Z,62.21
2019-04-12T04:38:06.614Z,62.12
2019-04-12T04:39:06.553Z,61.74
2019-04-12T04:40:06.539Z,61.83
2019-04-12T04:41:06.539Z,62.21
2019-04-12T04:42:06.526Z,62.12
2019-04-12T04:43:06.516Z,62.12
2019-04-12T04:44:06.504Z,61.65
2019-04-12T04:45:06.493Z,61.74
2019-04-12T04:46:06.482Z,61.93
2019-04-12T04:47:06.482Z,61.93
2019-04-12T04:48:06.467Z,61.74
2019-04-12T04:49:06.459Z,62.02
2019-04-12T04:50:06.447Z,62.02
2019-04-12T04:51:06.441Z,62.02
2019-04-12T04:52:06.421Z,61.93
2019-04-12T04:53:06.412Z,62.12
2019-04-12T04:54:06.398Z,61.93
2019-04-12T04:55:06.395Z,62.02
2019-04-12T04:56:06.384Z,61.93
2019-04-12T04:57:06.370Z,62.02
2019-04-12T04:58:06.357Z,62.02
2019-04-12T04:59:06.358Z,61.93
2019-04-12T05:00:06.344Z,61.83
2019-04-12T05:01:06.335Z,61.36
2019-04-12T05:02:06.336Z,61.83
2019-04-12T05:03:08.345Z,61.93
2019-04-12T05:04:06.303Z,62.02
2019-04-12T05:05:06.294Z,62.02
2019-04-12T05:06:06.281Z,62.21
2019-04-12T05:07:06.275Z,62.02
2019-04-12T05:08:06.265Z,61.65
2019-04-12T05:09:06.252Z,61.93
2019-04-12T05:10:06.245Z,61.74
2019-04-12T05:11:06.228Z,61.93
2019-04-12T05:12:06.230Z,62.31
2019-04-12T05:13:06.228Z,62.12
2019-04-12T05:14:06.201Z,62.31
2019-04-12T05:15:06.189Z,61.93
2019-04-12T05:16:06.178Z,60.98
2019-04-12T05:17:06.170Z,61.45
2019-04-12T05:18:06.160Z,61.17
2019-04-12T05:19:06.154Z,60.98
2019-04-12T05:20:06.149Z,61.45
2019-04-12T05:21:06.134Z,61.45
2019-04-12T05:22:06.126Z,61.07
2019-04-12T05:23:06.111Z,61.17
2019-04-12T05:24:06.104Z,61.26
2019-04-12T05:25:06.109Z,61.07
2019-04-12T05:26:06.076Z,61.07
2019-04-12T05:27:06.071Z,61.45
2019-04-12T05:28:06.087Z,61.45
2019-04-12T05:29:06.047Z,61.45
2019-04-12T05:30:06.037Z,61.26
2019-04-12T05:31:06.032Z,60.98
2019-04-12T05:32:06.024Z,61.55
2019-04-12T05:33:06.016Z,62.02
2019-04-12T05:34:06.005Z,62.02
2019-04-12T05:35:05.991Z,62.12
2019-04-12T05:36:05.982Z,62.02
2019-04-12T05:37:10.498Z,62.02
2019-04-12T05:38:05.960Z,62.31
2019-04-12T05:39:05.947Z,62.21
2019-04-12T05:40:05.939Z,61.83
2019-04-12T05:41:05.930Z,62.02
2019-04-12T05:42:05.920Z,61.93
2019-04-12T05:43:05.916Z,62.88
2019-04-12T05:44:05.906Z,62.59
2019-04-12T05:45:05.890Z,62.69
2019-04-12T05:46:07.506Z,62.50
2019-04-12T05:47:05.873Z,62.31
2019-04-12T05:48:05.863Z,62.12
2019-04-12T05:49:05.850Z,62.02
2019-04-12T05:50:05.841Z,62.21
2019-04-12T05:51:05.827Z,61.93
2019-04-12T05:52:05.817Z,61.93
2019-04-12T05:53:05.806Z,61.74
2019-04-12T05:54:05.798Z,61.17
2019-04-12T05:55:06.800Z,61.45
2019-04-12T05:56:05.788Z,61.65
2019-04-12T05:57:05.774Z,61.87
2019-04-12T05:58:05.765Z,61.74
2019-04-12T05:59:05.751Z,60.98
2019-04-12T06:00:05.742Z,61.68
2019-04-12T06:01:05.733Z,61.26
2019-04-12T06:02:05.724Z,60.88
2019-04-12T06:03:05.711Z,60.72
2019-04-12T06:04:05.702Z,61.20
2019-04-12T06:05:05.688Z,60.91
2019-04-12T06:06:05.679Z,60.88
2019-04-12T06:07:05.673Z,60.91
2019-04-12T06:08:05.676Z,60.91
2019-04-12T06:09:05.654Z,60.91
2019-04-12T06:10:05.643Z,61.01
2019-04-12T06:11:05.645Z,60.88
2019-04-12T06:12:05.621Z,61.58
2019-04-12T06:13:05.646Z,61.45
2019-04-12T06:14:05.605Z,61.65
2019-04-12T06:15:05.598Z,61.36
2019-04-12T06:16:05.588Z,61.01
2019-04-12T06:17:05.575Z,61.55
2019-04-12T06:18:05.624Z,61.39
2019-04-12T06:19:05.560Z,61.10
2019-04-12T06:20:05.549Z,60.79
2019-04-12T06:21:05.536Z,60.79
2019-04-12T06:22:05.531Z,60.69
2019-04-12T06:23:05.513Z,61.10
2019-04-12T06:24:05.505Z,60.79
2019-04-12T06:25:05.540Z,60.41
2019-04-12T06:26:05.484Z,60.60
2019-04-12T06:27:10.257Z,60.41
2019-04-12T06:28:05.469Z,60.22
2019-04-12T06:29:05.461Z,60.35
2019-04-12T06:30:05.453Z,60.25
2019-04-12T06:31:05.437Z,59.87
2019-04-12T06:32:05.430Z,59.49
2019-04-12T06:33:05.427Z,59.49
2019-04-12T06:34:05.415Z,59.20
2019-04-12T06:35:05.400Z,59.39
2019-04-12T06:36:05.392Z,59.39
2019-04-12T06:37:05.426Z,59.39
2019-04-12T06:38:05.370Z,59.49
2019-04-12T06:39:05.365Z,59.68
2019-04-12T06:40:05.356Z,58.95
2019-04-12T06:41:05.346Z,58.85
2019-04-12T06:42:05.339Z,59.14
2019-04-12T06:43:05.324Z,58.95
2019-04-12T06:44:05.316Z,58.76
2019-04-12T06:45:05.303Z,58.69
2019-04-12T06:46:05.297Z,58.59
2019-04-12T06:47:05.295Z,58.03
2019-04-12T06:48:05.284Z,57.17
2019-04-12T06:49:05.266Z,56.70
2019-04-12T06:50:05.259Z,56.51
2019-04-12T06:51:05.253Z,56.15
2019-04-12T06:52:05.248Z,55.58
2019-04-12T06:53:05.239Z,55.58
2019-04-12T06:54:05.229Z,55.10
2019-04-12T06:55:05.218Z,54.79
2019-04-12T06:56:05.210Z,54.44
2019-04-12T06:57:05.202Z,54.25
2019-04-12T06:58:05.211Z,55.01
2019-04-12T06:59:05.198Z,54.72
2019-04-12T07:00:05.182Z,54.06
2019-04-12T07:01:07.914Z,53.70
2019-04-12T07:02:05.164Z,53.89
2019-04-12T07:03:05.153Z,53.32
2019-04-12T07:04:05.143Z,52.94
2019-04-12T07:05:05.140Z,52.44
2019-04-12T07:06:05.132Z,52.63
2019-04-12T07:07:05.120Z,52.63
2019-04-12T07:08:05.172Z,52.82
2019-04-12T07:09:05.115Z,52.92
2019-04-12T07:10:05.102Z,52.44
2019-04-12T07:11:05.096Z,52.25
2019-04-12T07:12:05.097Z,51.61
2019-04-12T07:13:05.081Z,51.70
2019-04-12T07:14:05.077Z,51.70
2019-04-12T07:15:05.062Z,51.99
2019-04-12T07:16:05.055Z,51.70
2019-04-12T07:17:05.043Z,51.45
2019-04-12T07:18:05.037Z,50.87
2019-04-12T07:19:05.034Z,50.66
2019-04-12T07:20:05.028Z,50.49
2019-04-12T07:21:05.017Z,49.82
2019-04-12T07:22:05.009Z,49.35
2019-04-12T07:23:05.006Z,49.54
2019-04-12T07:24:05.001Z,48.56
2019-04-12T07:25:04.998Z,48.47
2019-04-12T07:26:04.990Z,48.75
2019-04-12T07:27:04.978Z,48.44
2019-04-12T07:28:04.974Z,48.16
2019-04-12T07:29:04.963Z,48.73
2019-04-12T07:30:04.959Z,48.92
2019-04-12T07:31:04.955Z,48.92
2019-04-12T07:32:04.948Z,48.92
2019-04-12T07:33:04.942Z,49.01
2019-04-12T07:34:04.933Z,48.92
2019-04-12T07:35:04.959Z,49.49
2019-04-12T07:36:04.915Z,49.40
2019-04-12T07:37:04.912Z,49.11
2019-04-12T07:38:04.906Z,48.63
2019-04-12T07:39:04.894Z,48.82
2019-04-12T07:40:05.807Z,48.54
2019-04-12T07:41:04.884Z,48.54
2019-04-12T07:42:04.877Z,48.54
2019-04-12T07:43:04.879Z,48.23
2019-04-12T07:44:07.541Z,48.32
2019-04-12T07:45:04.857Z,48.71
2019-04-12T07:46:04.849Z,48.90
2019-04-12T07:47:04.839Z,48.90
2019-04-12T07:48:04.830Z,48.90
2019-04-12T07:49:04.826Z,48.90
2019-04-12T07:50:04.819Z,49.08
2019-04-12T07:51:04.816Z,48.80
2019-04-12T07:52:04.810Z,48.99
2019-04-12T07:53:04.797Z,48.90
2019-04-12T07:54:04.789Z,48.90
2019-04-12T07:55:04.789Z,48.92
2019-04-12T07:56:04.778Z,48.92
2019-04-12T07:57:04.772Z,48.54
2019-04-12T07:58:04.763Z,48.35
2019-04-12T07:59:04.748Z,48.16
2019-04-12T08:00:04.743Z,48.18
2019-04-12T08:01:04.732Z,48.18
2019-04-12T08:02:04.726Z,48.21
2019-04-12T08:03:04.725Z,47.78
2019-04-12T08:04:04.716Z,46.27
2019-04-12T08:05:04.714Z,44.94
2019-04-12T08:06:07.364Z,43.89
2019-04-12T08:07:04.698Z,43.22
2019-04-12T08:08:04.689Z,42.82
2019-04-12T08:09:04.687Z,43.03
2019-04-12T08:10:04.683Z,42.36
2019-04-12T08:11:04.671Z,42.29
2019-04-12T08:12:04.669Z,41.69
2019-04-12T08:13:04.663Z,41.29
2019-04-12T08:14:04.656Z,41.84
2019-04-12T08:15:13.126Z,41.86
2019-04-12T08:16:04.653Z,41.84
2019-04-12T08:17:04.647Z,42.03
2019-04-12T08:18:04.646Z,42.70
2019-04-12T08:19:04.636Z,42.89
2019-04-12T08:20:04.635Z,42.80
2019-04-12T08:21:04.631Z,42.87
2019-04-12T08:22:04.627Z,43.06
2019-04-12T08:23:04.628Z,43.23
2019-04-12T08:24:04.622Z,44.18
2019-04-12T08:25:04.863Z,43.80
2019-04-12T08:26:04.609Z,44.37
2019-04-12T08:27:04.610Z,44.56
2019-04-12T08:28:04.603Z,44.56
2019-04-12T08:29:04.596Z,45.61
2019-04-12T08:30:04.590Z,45.61
2019-04-12T08:31:04.580Z,45.42
2019-04-12T08:32:04.576Z,45.51
2019-04-12T08:33:04.570Z,45.32
2019-04-12T08:34:04.564Z,45.42
2019-04-12T08:35:04.563Z,45.44
2019-04-12T08:36:04.559Z,46.01
2019-04-12T08:37:04.564Z,45.99
2019-04-12T08:38:05.500Z,44.81
2019-04-12T08:39:04.543Z,43.19
2019-04-12T08:40:04.536Z,42.60
2019-04-12T08:41:04.538Z,42.21
2019-04-12T08:42:04.529Z,41.60
2019-04-12T08:43:04.521Z,41.98
2019-04-12T08:44:04.528Z,41.98
2019-04-12T08:45:04.511Z,41.86
2019-04-12T08:46:04.513Z,42.41
2019-04-12T08:47:04.529Z,42.80
2019-04-12T08:48:06.203Z,42.80
2019-04-12T08:49:04.531Z,43.35
2019-04-12T08:50:04.495Z,44.11
2019-04-12T08:51:04.506Z,43.90
2019-04-12T08:52:04.483Z,44.18
2019-04-12T08:53:04.494Z,45.42
2019-04-12T08:54:04.489Z,45.42
2019-04-12T08:55:04.521Z,45.70
2019-04-12T08:56:04.515Z,45.49
2019-04-12T08:57:04.470Z,46.15
2019-04-12T08:58:10.788Z,46.99
2019-04-12T08:59:04.447Z,47.47
2019-04-12T09:00:04.527Z,47.37
2019-04-12T09:01:04.474Z,48.03
2019-04-12T09:02:04.439Z,48.35
2019-04-12T09:03:04.419Z,48.92
2019-04-12T09:04:04.419Z,48.92
2019-04-12T09:05:04.416Z,48.82
2019-04-12T09:06:04.423Z,49.20
2019-04-12T09:07:04.465Z,48.06
2019-04-12T09:08:04.398Z,47.94
2019-04-12T09:09:04.580Z,48.03
2019-04-12T09:10:04.522Z,47.66
2019-04-12T09:11:04.433Z,48.42
2019-04-12T09:12:04.382Z,48.71
2019-04-12T09:13:04.368Z,49.27
2019-04-12T09:14:04.352Z,49.65
2019-04-12T09:15:04.430Z,49.75
2019-04-12T09:16:04.361Z,49.75
2019-04-12T09:17:04.349Z,50.23
2019-04-12T09:18:04.352Z,50.51
2019-04-12T09:19:04.358Z,50.32
2019-04-12T09:20:04.406Z,50.23
2019-04-12T09:21:04.381Z,50.60
2019-04-12T09:22:04.352Z,50.01
2019-04-12T09:23:04.298Z,50.48
2019-04-12T09:24:07.131Z,50.87
2019-04-12T09:25:04.328Z,51.34
2019-04-12T09:26:04.316Z,51.46
2019-04-12T09:27:04.364Z,51.46
2019-04-12T09:28:04.276Z,51.18
2019-04-12T09:29:04.355Z,51.65
2019-04-12T09:30:04.228Z,51.93
2019-04-12T09:31:04.360Z,51.75
2019-04-12T09:32:04.209Z,51.84
2019-04-12T09:33:04.224Z,52.41
2019-04-12T09:34:16.077Z,52.89
2019-04-12T09:35:04.182Z,53.36
2019-04-12T09:36:04.175Z,53.46
2019-04-12T09:37:04.167Z,53.55
2019-04-12T09:38:04.159Z,54.32
2019-04-12T09:39:04.156Z,55.10
2019-04-12T09:40:04.147Z,54.72
2019-04-12T09:41:04.136Z,54.72
2019-04-12T09:42:04.129Z,54.60
2019-04-12T09:43:04.115Z,54.60
2019-04-12T09:44:04.111Z,54.72
2019-04-12T09:45:04.106Z,55.29
2019-04-12T09:46:04.095Z,55.01
2019-04-12T09:47:04.084Z,54.72
2019-04-12T09:48:04.077Z,54.82
2019-04-12T09:49:04.071Z,54.72
2019-04-12T09:50:04.066Z,54.82
2019-04-12T09:51:04.058Z,53.96
2019-04-12T09:52:04.050Z,53.77
2019-04-12T09:53:04.042Z,53.61
2019-04-12T09:54:04.036Z,54.18
2019-04-12T09:55:04.024Z,53.70
2019-04-12T09:56:04.017Z,53.13
2019-04-12T09:57:04.006Z,52.66
2019-04-12T09:58:04.000Z,52.75
2019-04-12T09:59:03.998Z,52.37
2019-04-12T10:00:03.990Z,51.89
2019-04-12T10:01:03.978Z,51.70
2019-04-12T10:02:13.626Z,52.09
2019-04-12T10:03:03.966Z,51.39
2019-04-12T10:04:03.960Z,51.58
2019-04-12T10:05:03.960Z,51.49
2019-04-12T10:06:03.949Z,51.10
2019-04-12T10:07:03.937Z,51.58
2019-04-12T10:08:03.931Z,51.39
2019-04-12T10:09:03.922Z,51.87
2019-04-12T10:10:03.916Z,52.15
2019-04-12T10:11:03.914Z,52.25
2019-04-12T10:12:03.905Z,52.82
2019-04-12T10:13:03.894Z,52.92
2019-04-12T10:14:03.886Z,53.01
2019-04-12T10:15:03.876Z,52.92
2019-04-12T10:16:03.869Z,53.58
2019-04-12T10:17:03.865Z,53.67
2019-04-12T10:18:03.859Z,52.89
2019-04-12T10:19:03.850Z,53.08
2019-04-12T10:20:03.840Z,53.94
2019-04-12T10:21:03.834Z,53.27
2019-04-12T10:22:03.827Z,53.17
2019-04-12T10:23:03.828Z,52.51
2019-04-12T10:24:03.816Z,52.32
2019-04-12T10:25:03.810Z,52.22
2019-04-12T10:26:03.810Z,52.22
2019-04-12T10:27:03.791Z,52.13
2019-04-12T10:28:03.786Z,52.41
2019-04-12T10:29:03.772Z,52.22
2019-04-12T10:30:03.766Z,52.51
2019-04-12T10:31:03.762Z,52.80
2019-04-12T10:32:03.755Z,52.98
2019-04-12T10:33:03.741Z,53.36
2019-04-12T10:34:03.737Z,53.49
2019-04-12T10:35:03.734Z,53.30
2019-04-12T10:36:03.725Z,53.49
2019-04-12T10:37:03.721Z,52.82
2019-04-12T10:38:03.710Z,52.53
2019-04-12T10:39:03.701Z,52.34
2019-04-12T10:40:03.691Z,52.51
2019-04-12T10:41:03.683Z,52.41
2019-04-12T10:42:03.675Z,52.34
2019-04-12T10:43:03.681Z,51.87
2019-04-12T10:44:03.668Z,52.06
2019-04-12T10:45:03.656Z,51.97
2019-04-12T10:46:03.651Z,52.06
2019-04-12T10:47:03.634Z,51.97
2019-04-12T10:48:04.016Z,51.78
2019-04-12T10:49:03.623Z,51.97
2019-04-12T10:50:03.615Z,52.25
2019-04-12T10:51:03.605Z,52.34
2019-04-12T10:52:03.596Z,52.34
2019-04-12T10:53:03.596Z,52.53
2019-04-12T10:54:03.584Z,52.53
2019-04-12T10:55:03.582Z,52.75
2019-04-12T10:56:03.575Z,52.75
2019-04-12T10:57:03.566Z,51.97
2019-04-12T10:58:03.555Z,51.99
2019-04-12T10:59:03.580Z,51.70
2019-04-12T11:00:03.537Z,51.80
2019-04-12T11:01:03.531Z,51.68
2019-04-12T11:02:03.524Z,51.68
2019-04-12T11:03:03.521Z,51.30
2019-04-12T11:04:03.515Z,51.87
2019-04-12T11:05:03.504Z,51.49
2019-04-12T11:06:03.499Z,51.30
2019-04-12T11:07:03.493Z,51.49
2019-04-12T11:08:03.483Z,51.49
2019-04-12T11:09:03.473Z,51.58
2019-04-12T11:10:03.468Z,51.30
2019-04-12T11:11:03.455Z,52.09
2019-04-12T11:12:03.452Z,52.09
2019-04-12T11:13:03.441Z,52.25
2019-04-12T11:14:03.434Z,51.78
2019-04-12T11:15:03.449Z,52.06
2019-04-12T11:16:03.426Z,52.06
2019-04-12T11:17:03.420Z,52.15
2019-04-12T11:18:03.418Z,52.44
2019-04-12T11:19:03.402Z,53.04
2019-04-12T11:20:03.396Z,53.52
2019-04-12T11:21:03.392Z,53.42
2019-04-12T11:22:03.387Z,52.87
2019-04-12T11:23:03.428Z,52.49
2019-04-12T11:24:03.367Z,52.68
2019-04-12T11:25:03.362Z,52.11
2019-04-12T11:26:03.349Z,52.59
2019-04-12T11:27:03.347Z,52.40
2019-04-12T11:28:03.341Z,52.30
2019-04-12T11:29:16.004Z,52.18
2019-04-12T11:30:03.329Z,52.28
2019-04-12T11:31:03.319Z,52.84
2019-04-12T11:32:03.311Z,53.04
2019-04-12T11:33:03.307Z,53.89
2019-04-12T11:34:03.298Z,53.99
2019-04-12T11:35:03.298Z,54.08
2019-04-12T11:36:03.290Z,55.07
2019-04-12T11:37:03.279Z,54.85
2019-04-12T11:38:03.286Z,54.75
2019-04-12T11:39:03.270Z,54.75
2019-04-12T11:40:03.265Z,55.61
2019-04-12T11:41:03.254Z,55.22
2019-04-12T11:42:03.249Z,55.70
2019-04-12T11:43:03.238Z,55.32
2019-04-12T11:44:03.231Z,55.32
2019-04-12T11:45:03.224Z,55.42
2019-04-12T11:46:03.221Z,55.51
2019-04-12T11:47:03.218Z,55.68
2019-04-12T11:48:03.211Z,55.87
2019-04-12T11:49:03.201Z,56.05
2019-04-12T11:50:03.195Z,56.92
2019-04-12T11:51:03.818Z,57.48
2019-04-12T11:52:03.179Z,56.92
2019-04-12T11:53:03.176Z,57.67
2019-04-12T11:54:03.168Z,57.77
2019-04-12T11:55:03.157Z,57.58
2019-04-12T11:56:03.152Z,57.96
2019-04-12T11:57:03.144Z,57.89
2019-04-12T11:58:03.138Z,57.77
2019-04-12T11:59:03.132Z,57.48
2019-04-12T12:00:03.125Z,57.77
2019-04-12T12:01:03.119Z,57.77
2019-04-12T12:02:03.111Z,57.67
2019-04-12T12:03:03.101Z,57.77
2019-04-12T12:04:03.097Z,57.48
2019-04-12T12:05:03.083Z,57.67
2019-04-12T12:06:03.078Z,57.58
2019-04-12T12:07:03.075Z,57.96
2019-04-12T12:08:03.069Z,57.77
2019-04-12T12:09:05.039Z,58.06
2019-04-12T12:10:03.049Z,57.80
2019-04-12T12:11:03.048Z,57.96
2019-04-12T12:12:03.039Z,57.70
2019-04-12T12:13:03.110Z,57.13
2019-04-12T12:14:03.027Z,57.13
2019-04-12T12:15:03.018Z,56.30
2019-04-12T12:16:03.010Z,56.02
2019-04-12T12:17:03.004Z,56.21
2019-04-12T12:18:02.997Z,55.35
2019-04-12T12:19:02.995Z,54.78
2019-04-12T12:20:02.994Z,54.97
2019-04-12T12:21:02.983Z,54.47
2019-04-12T12:22:02.973Z,55.04
2019-04-12T12:23:02.964Z,55.32
2019-04-12T12:24:02.965Z,55.35
2019-04-12T12:25:02.955Z,55.16
2019-04-12T12:26:02.948Z,54.94
2019-04-12T12:27:02.939Z,55.42
2019-04-12T12:28:02.930Z,54.66
2019-04-12T12:29:02.926Z,54.85
2019-04-12T12:30:02.924Z,54.66
2019-04-12T12:31:02.934Z,55.04
2019-04-12T12:32:02.913Z,54.75
2019-04-12T12:33:02.907Z,55.51
2019-04-12T12:34:02.899Z,56.09
2019-04-12T12:35:02.892Z,56.37
2019-04-12T12:36:02.885Z,56.65
2019-04-12T12:37:02.876Z,57.13
2019-04-12T12:38:02.867Z,57.32
2019-04-12T12:39:02.866Z,57.23
2019-04-12T12:40:02.861Z,57.32
2019-04-12T12:41:02.849Z,57.04
2019-04-12T12:42:02.842Z,57.13
2019-04-12T12:43:02.846Z,56.56
2019-04-12T12:44:02.835Z,56.27
2019-04-12T12:45:02.828Z,55.90
2019-04-12T12:46:02.825Z,55.61
2019-04-12T12:47:02.814Z,54.85
2019-04-12T12:48:02.808Z,55.42
2019-04-12T12:49:02.801Z,55.61
2019-04-12T12:50:02.795Z,55.61
2019-04-12T12:51:02.791Z,55.42
2019-04-12T12:52:02.786Z,55.13
2019-04-12T12:53:02.784Z,55.80
2019-04-12T12:54:02.771Z,55.61
2019-04-12T12:55:02.766Z,55.68
2019-04-12T12:56:02.752Z,55.58
2019-04-12T12:57:02.751Z,56.15